createdAt,value
2022-10-03T00:01:30.095Z,19.67
2022-10-03T00:04:09.834Z,19.95
2022-10-03T00:06:53.207Z,22.08
2022-10-03T00:09:33.906Z,20.42
2022-10-03T00:12:15.326Z,20.05
2022-10-03T00:14:54.799Z,19.25
2022-10-03T00:17:31.333Z,20.80
2022-10-03T00:20:08.699Z,19.23
2022-10-03T00:22:45.740Z,18.67
2022-10-03T00:25:31.954Z,21.23
2022-10-03T00:28:13.968Z,19.60
2022-10-03T00:30:56.504Z,22.33
2022-10-03T00:33:34.107Z,21.35
2022-10-03T00:36:09.088Z,17.42
2022-10-03T00:39:15.029Z,21.45
2022-10-03T00:42:13.615Z,21.80
2022-10-03T00:45:11.228Z,22.00
2022-10-03T00:48:01.522Z,22.83
2022-10-03T00:50:59.871Z,22.13
2022-10-03T00:53:45.587Z,21.00
2022-10-03T00:56:37.467Z,22.95
2022-10-03T00:59:23.770Z,20.83
2022-10-03T01:01:52.497Z,20.48
2022-10-03T01:04:44.443Z,19.75
2022-10-03T01:07:29.894Z,20.88
2022-10-03T01:10:17.137Z,21.35
2022-10-03T01:13:05.150Z,20.92
2022-10-03T01:15:46.424Z,21.23
2022-10-03T01:18:29.042Z,21.45
2022-10-03T01:21:07.925Z,21.65
2022-10-03T01:24:07.267Z,20.73
2022-10-03T01:26:53.299Z,18.25
2022-10-03T01:29:44.673Z,18.38
2022-10-03T01:32:23.089Z,16.85
2022-10-03T01:35:02.239Z,18.88
2022-10-03T01:37:40.109Z,17.00
2022-10-03T01:40:18.336Z,18.45
2022-10-03T01:43:03.000Z,19.40
2022-10-03T01:45:43.261Z,21.30
2022-10-03T01:48:18.399Z,20.60
2022-10-03T01:50:53.392Z,19.25
2022-10-03T01:53:31.283Z,17.17
2022-10-03T01:56:08.729Z,18.98
2022-10-03T01:58:49.345Z,19.15
2022-10-03T02:01:26.138Z,17.77
2022-10-03T02:04:05.483Z,17.50
2022-10-03T02:06:45.902Z,17.15
2022-10-03T02:12:02.450Z,17.50
2022-10-03T02:14:41.452Z,16.50
2022-10-03T02:17:22.758Z,18.08
2022-10-03T02:19:58.710Z,16.70
2022-10-03T02:22:33.319Z,16.73
2022-10-03T02:25:15.452Z,18.73
2022-10-03T02:28:14.442Z,19.35
2022-10-03T02:31:07.378Z,20.50
2022-10-03T02:34:16.979Z,17.52
2022-10-03T02:37:09.495Z,16.70
2022-10-03T02:40:01.866Z,19.85
2022-10-03T02:43:23.777Z,18.92
2022-10-03T02:46:18.720Z,18.88
2022-10-03T02:49:26.147Z,17.48
2022-10-03T02:52:16.531Z,17.88
2022-10-03T02:58:11.515Z,17.83
2022-10-03T03:01:15.482Z,17.95
2022-10-03T03:04:04.513Z,18.63
2022-10-03T03:06:52.815Z,18.13
2022-10-03T03:09:38.219Z,20.48
2022-10-03T03:12:45.472Z,19.92
2022-10-03T03:15:51.850Z,18.85
2022-10-03T03:18:30.316Z,16.55
2022-10-03T03:21:16.976Z,15.45
2022-10-03T03:24:06.284Z,17.23
2022-10-03T03:26:48.273Z,16.05
2022-10-03T03:29:27.160Z,15.43
2022-10-03T03:32:03.814Z,15.30
2022-10-03T03:34:42.296Z,15.73
2022-10-03T03:37:16.946Z,18.42
2022-10-03T03:40:03.794Z,18.17
2022-10-03T03:42:49.014Z,17.50
2022-10-03T03:45:31.398Z,17.55
2022-10-03T03:48:13.284Z,18.52
2022-10-03T03:50:52.935Z,19.58
2022-10-03T03:53:53.324Z,19.55
2022-10-03T03:56:44.347Z,18.00
2022-10-03T03:59:30.598Z,16.58
2022-10-03T04:02:13.918Z,17.05
2022-10-03T04:04:53.844Z,16.35
2022-10-03T04:07:34.683Z,16.95
2022-10-03T04:10:15.087Z,18.08
2022-10-03T04:15:49.929Z,17.92
2022-10-03T04:18:56.202Z,17.25
2022-10-03T04:21:42.036Z,16.98
2022-10-03T04:24:29.355Z,17.38
2022-10-03T04:27:16.659Z,19.27
2022-10-03T04:29:53.367Z,18.95
2022-10-03T04:32:50.413Z,18.67
2022-10-03T04:35:34.646Z,17.65
2022-10-03T04:38:13.217Z,19.42
2022-10-03T04:40:51.900Z,19.40
2022-10-03T04:43:34.765Z,20.50
2022-10-03T04:46:25.304Z,19.95
2022-10-03T04:49:01.624Z,19.75
2022-10-03T04:51:42.596Z,22.20
2022-10-03T04:54:21.467Z,20.55
2022-10-03T04:56:58.160Z,21.65
2022-10-03T04:59:47.488Z,22.08
2022-10-03T05:02:29.513Z,22.63
2022-10-03T05:05:17.133Z,22.58
2022-10-03T05:07:52.136Z,22.55
2022-10-03T05:10:41.763Z,22.08
2022-10-03T05:13:17.255Z,23.42
2022-10-03T05:15:56.683Z,23.15
2022-10-03T05:18:35.681Z,23.88
2022-10-03T05:21:10.925Z,24.75
2022-10-03T05:23:50.851Z,22.83
2022-10-03T05:26:45.525Z,18.38
2022-10-03T05:29:22.449Z,21.85
2022-10-03T05:32:04.042Z,19.20
2022-10-03T05:34:57.321Z,22.70
2022-10-03T05:37:49.416Z,22.67
2022-10-03T05:40:21.534Z,23.08
2022-10-03T05:43:21.274Z,21.30
2022-10-03T05:45:57.909Z,22.25
2022-10-03T05:48:34.530Z,26.10
2022-10-03T05:51:32.475Z,21.17
2022-10-03T05:54:26.229Z,23.08
2022-10-03T05:57:16.462Z,23.77
2022-10-03T06:00:15.146Z,22.67
2022-10-03T06:03:15.602Z,21.42
2022-10-03T06:08:54.243Z,23.65
2022-10-03T06:11:36.011Z,23.23
2022-10-03T06:14:32.667Z,22.08
2022-10-03T06:17:24.503Z,23.38
2022-10-03T06:20:00.343Z,22.50
2022-10-03T06:23:06.475Z,24.00
2022-10-03T06:26:07.078Z,26.13
2022-10-03T06:29:36.957Z,26.33
2022-10-03T06:32:39.525Z,23.92
2022-10-03T06:35:58.140Z,25.35
2022-10-03T06:39:02.312Z,25.98
2022-10-03T06:42:12.382Z,24.88
2022-10-03T06:45:10.818Z,23.65
2022-10-03T06:48:02.805Z,24.42
2022-10-03T06:50:54.682Z,23.17
2022-10-03T06:53:39.352Z,23.70
2022-10-03T06:56:49.737Z,23.63
2022-10-03T06:59:37.440Z,21.05
2022-10-03T07:02:41.434Z,23.50
2022-10-03T07:06:10.042Z,24.77
2022-10-03T07:09:26.479Z,23.40
2022-10-03T07:12:36.176Z,21.90
2022-10-03T07:16:05.036Z,21.53
2022-10-03T07:19:05.382Z,23.17
2022-10-03T07:22:13.481Z,22.65
2022-10-03T07:25:23.715Z,24.75
2022-10-03T07:28:07.797Z,22.77
2022-10-03T07:30:54.364Z,25.73
2022-10-03T07:33:47.459Z,26.70
2022-10-03T07:36:50.089Z,25.98
2022-10-03T07:39:54.489Z,27.95
2022-10-03T07:42:47.658Z,27.75
2022-10-03T07:45:33.853Z,27.80
2022-10-03T07:48:20.533Z,27.92
2022-10-03T07:51:00.187Z,27.98
2022-10-03T07:53:51.994Z,29.85
2022-10-03T07:56:42.854Z,28.48
2022-10-03T07:59:38.298Z,26.33
2022-10-03T08:02:27.939Z,30.85
2022-10-03T08:05:21.363Z,27.13
2022-10-03T08:08:20.373Z,28.02
2022-10-03T08:11:12.800Z,26.88
2022-10-03T08:14:01.542Z,28.08
2022-10-03T08:16:53.193Z,27.63
2022-10-03T08:19:37.538Z,27.50
2022-10-03T08:22:13.706Z,25.13
2022-10-03T08:25:07.279Z,24.92
2022-10-03T08:27:52.799Z,25.88
2022-10-03T08:30:25.454Z,27.40
2022-10-03T08:33:00.401Z,28.77
2022-10-03T08:36:02.256Z,26.23
2022-10-03T08:38:58.199Z,29.27
2022-10-03T08:42:03.926Z,30.17
2022-10-03T08:45:00.967Z,27.65
2022-10-03T08:48:25.098Z,27.50
2022-10-03T08:51:35.456Z,29.60
2022-10-03T08:54:20.532Z,26.58
2022-10-03T08:57:07.530Z,28.88
2022-10-03T09:00:05.253Z,29.23
2022-10-03T09:03:40.529Z,26.27
2022-10-03T09:07:18.074Z,26.02
2022-10-03T09:10:25.558Z,24.13
2022-10-03T09:13:16.247Z,26.83
2022-10-03T09:16:33.459Z,28.05
2022-10-03T09:19:29.692Z,25.40
2022-10-03T09:22:27.132Z,26.42
2022-10-03T09:25:29.705Z,25.98
2022-10-03T09:28:28.435Z,22.83
2022-10-03T09:31:14.356Z,21.77
2022-10-03T09:34:28.911Z,23.88
2022-10-03T09:37:26.230Z,23.98
2022-10-03T09:40:25.115Z,21.23
2022-10-03T09:43:21.606Z,22.30
2022-10-03T09:46:13.898Z,20.63
2022-10-03T09:49:08.621Z,21.00
2022-10-03T09:51:51.610Z,22.13
2022-10-03T09:54:58.757Z,22.20
2022-10-03T09:58:00.923Z,17.92
2022-10-03T10:00:41.973Z,21.45
2022-10-03T10:04:00.122Z,19.48
2022-10-03T10:06:42.013Z,21.48
2022-10-03T10:09:48.968Z,21.58
2022-10-03T10:12:49.336Z,22.30
2022-10-03T10:15:37.239Z,20.00
2022-10-03T10:18:43.522Z,23.25
2022-10-03T10:21:56.511Z,24.60
2022-10-03T10:25:12.193Z,23.98
2022-10-03T10:28:08.142Z,21.38
2022-10-03T10:31:16.291Z,20.45
2022-10-03T10:34:33.109Z,20.52
2022-10-03T10:37:54.262Z,20.75
2022-10-03T10:40:59.848Z,23.30
2022-10-03T10:44:20.142Z,20.70
2022-10-03T10:47:12.602Z,21.50
2022-10-03T10:50:22.386Z,17.77
2022-10-03T10:53:27.875Z,20.77
2022-10-03T10:56:43.321Z,19.77
2022-10-03T10:59:50.918Z,19.45
2022-10-03T11:03:02.695Z,19.80
2022-10-03T11:05:47.812Z,17.63
2022-10-03T11:08:56.882Z,17.85
2022-10-03T11:12:23.331Z,20.23
2022-10-03T11:15:28.512Z,18.05
2022-10-03T11:18:51.301Z,19.17
2022-10-03T11:21:47.375Z,15.40
2022-10-03T11:25:00.654Z,17.73
2022-10-03T11:28:22.057Z,16.02
2022-10-03T11:31:28.155Z,17.60
2022-10-03T11:34:45.439Z,18.00
2022-10-03T11:37:28.976Z,16.08
2022-10-03T11:40:12.501Z,18.98
2022-10-03T11:42:51.700Z,16.17
2022-10-03T11:45:28.386Z,14.85
2022-10-03T11:48:29.622Z,15.05
2022-10-03T11:51:05.511Z,15.43
2022-10-03T11:53:47.057Z,17.38
2022-10-03T11:56:26.593Z,16.83
2022-10-03T11:59:05.774Z,14.57
2022-10-03T12:01:48.651Z,13.65
2022-10-03T12:04:27.005Z,15.40
2022-10-03T12:07:20.195Z,15.90
2022-10-03T12:10:04.664Z,15.43
2022-10-03T12:12:42.299Z,15.70
2022-10-03T12:15:31.789Z,14.48
2022-10-03T12:18:10.932Z,15.48
2022-10-03T12:20:59.615Z,15.45
2022-10-03T12:23:47.095Z,15.75
2022-10-03T12:26:25.151Z,16.00
2022-10-03T12:28:56.461Z,14.52
2022-10-03T12:31:31.031Z,16.75
2022-10-03T12:34:16.113Z,14.48
2022-10-03T12:36:53.335Z,15.68
2022-10-03T12:39:35.696Z,13.75
2022-10-03T12:42:18.600Z,14.02
2022-10-03T12:44:56.137Z,14.63
2022-10-03T12:47:54.906Z,14.82
2022-10-03T12:50:36.992Z,14.77
2022-10-03T12:53:33.161Z,12.18
2022-10-03T12:56:12.436Z,13.70
2022-10-03T12:58:54.422Z,12.93
2022-10-03T13:01:36.316Z,11.80
2022-10-03T13:04:16.148Z,12.02
2022-10-03T13:07:08.973Z,10.73
2022-10-03T13:10:00.841Z,10.30
2022-10-03T13:12:40.279Z,10.23
2022-10-03T13:15:44.543Z,9.27
2022-10-03T13:18:35.319Z,10.18
2022-10-03T13:21:26.838Z,9.43
2022-10-03T13:24:01.124Z,11.23
2022-10-03T13:26:43.288Z,10.48
2022-10-03T13:29:25.444Z,9.35
2022-10-03T13:32:12.123Z,10.65
2022-10-03T13:34:54.736Z,9.80
2022-10-03T13:37:31.547Z,9.30
2022-10-03T13:40:08.166Z,8.70
2022-10-03T13:42:41.812Z,10.18
2022-10-03T13:45:18.423Z,6.57
2022-10-03T13:47:55.796Z,5.78
2022-10-03T13:50:31.046Z,6.18
2022-10-03T13:53:02.352Z,6.60
2022-10-03T13:55:41.896Z,6.70
2022-10-03T13:58:26.237Z,8.57
2022-10-03T14:01:21.800Z,8.15
2022-10-03T14:04:08.405Z,8.15
2022-10-03T14:06:44.212Z,6.60
2022-10-03T14:09:31.518Z,6.30
2022-10-03T14:12:08.280Z,6.82
2022-10-03T14:14:51.185Z,6.68
2022-10-03T14:17:30.604Z,7.65
2022-10-03T14:20:13.820Z,7.40
2022-10-03T14:22:56.947Z,6.88
2022-10-03T14:25:30.010Z,6.45
2022-10-03T14:28:05.011Z,6.53
2022-10-03T14:30:49.220Z,5.65
2022-10-03T14:33:35.389Z,6.55
2022-10-03T14:36:20.320Z,4.97
2022-10-03T14:39:22.163Z,5.90
2022-10-03T14:42:20.260Z,5.72
2022-10-03T14:44:54.388Z,5.85
2022-10-03T14:47:24.833Z,5.63
2022-10-03T14:52:34.854Z,6.20
2022-10-03T14:55:12.696Z,5.13
2022-10-03T14:58:06.002Z,4.85
2022-10-03T15:00:43.036Z,5.13
2022-10-03T15:03:38.030Z,6.35
2022-10-03T15:06:36.627Z,5.47
2022-10-03T15:09:10.121Z,5.78
2022-10-03T15:11:48.071Z,5.72
2022-10-03T15:14:16.525Z,5.97
2022-10-03T15:16:48.894Z,5.88
2022-10-03T15:19:19.937Z,6.40
2022-10-03T15:21:53.193Z,5.93
2022-10-03T15:24:26.695Z,6.63
2022-10-03T15:27:01.410Z,6.47
2022-10-03T15:29:32.395Z,6.22
2022-10-03T15:32:01.140Z,7.55
2022-10-03T15:34:33.223Z,5.57
2022-10-03T15:37:08.080Z,6.20
2022-10-03T15:39:40.417Z,6.45
2022-10-03T15:42:24.095Z,6.45
2022-10-03T15:44:54.751Z,6.80
2022-10-03T15:47:24.786Z,6.63
2022-10-03T15:49:57.075Z,6.90
2022-10-03T15:52:32.860Z,7.25
2022-10-03T15:55:12.633Z,6.88
2022-10-03T15:57:46.868Z,6.97
2022-10-03T16:00:24.585Z,7.88
2022-10-03T16:03:00.777Z,6.55
2022-10-03T16:05:29.196Z,7.13
2022-10-03T16:08:03.915Z,8.20
2022-10-03T16:10:38.069Z,7.72
2022-10-03T16:13:21.008Z,7.40
2022-10-03T16:16:07.503Z,7.25
2022-10-03T16:18:51.864Z,7.55
2022-10-03T16:21:47.644Z,7.82
2022-10-03T16:24:29.784Z,7.63
2022-10-03T16:27:06.427Z,8.52
2022-10-03T16:29:38.072Z,8.15
2022-10-03T16:32:09.346Z,8.68
2022-10-03T16:34:43.345Z,7.93
2022-10-03T16:37:18.774Z,8.93
2022-10-03T16:39:55.180Z,9.32
2022-10-03T16:42:26.451Z,8.60
2022-10-03T16:44:58.083Z,8.93
2022-10-03T16:47:34.416Z,9.35
2022-10-03T16:50:20.328Z,9.73
2022-10-03T16:52:52.188Z,8.93
2022-10-03T16:55:27.808Z,9.38
2022-10-03T16:57:58.672Z,9.02
2022-10-03T17:00:32.215Z,9.48
2022-10-03T17:03:00.699Z,9.80
2022-10-03T17:05:29.168Z,9.50
2022-10-03T17:08:23.651Z,9.50
2022-10-03T17:10:57.047Z,9.60
2022-10-03T17:13:37.017Z,8.35
2022-10-03T17:16:13.047Z,9.32
2022-10-03T17:18:45.444Z,9.30
2022-10-03T17:21:29.135Z,9.45
2022-10-03T17:24:06.663Z,10.00
2022-10-03T17:26:40.514Z,8.80
2022-10-03T17:29:15.915Z,9.25
2022-10-03T17:31:47.714Z,9.95
2022-10-03T17:34:19.828Z,8.82
2022-10-03T17:37:20.924Z,9.18
2022-10-03T17:39:56.359Z,8.63
2022-10-03T17:42:37.732Z,9.20
2022-10-03T17:45:33.666Z,9.18
2022-10-03T17:48:12.134Z,9.52
2022-10-03T17:50:53.646Z,9.80
2022-10-03T17:53:26.840Z,9.15
2022-10-03T17:55:58.282Z,10.32
2022-10-03T17:58:31.611Z,9.68
2022-10-03T18:01:10.118Z,8.90
2022-10-03T18:03:46.382Z,8.50
2022-10-03T18:06:50.332Z,9.07
2022-10-03T18:09:40.526Z,8.85
2022-10-03T18:12:17.063Z,9.43
2022-10-03T18:15:29.336Z,9.60
2022-10-03T18:18:29.755Z,9.35
2022-10-03T18:21:05.453Z,10.18
2022-10-03T18:23:54.922Z,9.25
2022-10-03T18:26:29.007Z,9.52
2022-10-03T18:29:07.000Z,10.23
2022-10-03T18:31:36.185Z,10.90
2022-10-03T18:34:13.918Z,11.25
2022-10-03T18:36:46.952Z,11.13
2022-10-03T18:39:18.612Z,11.13
2022-10-03T18:41:49.864Z,10.93
2022-10-03T18:44:20.762Z,11.40
2022-10-03T18:46:53.056Z,11.55
2022-10-03T18:49:33.353Z,9.70
2022-10-03T18:52:10.871Z,10.73
2022-10-03T18:54:52.655Z,10.95
2022-10-03T18:57:24.409Z,9.82
2022-10-03T18:59:57.899Z,10.77
2022-10-03T19:02:33.365Z,9.60
2022-10-03T19:05:10.956Z,10.75
2022-10-03T19:07:45.688Z,9.73
2022-10-03T19:10:29.282Z,9.55
2022-10-03T19:13:04.734Z,9.32
2022-10-03T19:15:50.698Z,9.63
2022-10-03T19:18:26.283Z,10.23
2022-10-03T19:20:59.296Z,10.05
2022-10-03T19:23:32.249Z,8.73
2022-10-03T19:26:04.315Z,8.23
2022-10-03T19:28:37.190Z,8.18
2022-10-03T19:31:09.608Z,7.90
2022-10-03T19:33:45.348Z,7.95
2022-10-03T19:36:18.329Z,8.23
2022-10-03T19:38:48.467Z,7.80
2022-10-03T19:41:28.108Z,7.80
2022-10-03T19:43:57.205Z,8.05
2022-10-03T19:46:41.391Z,7.35
2022-10-03T19:49:23.767Z,6.82
2022-10-03T19:51:53.688Z,6.72
2022-10-03T19:54:34.989Z,5.90
2022-10-03T19:57:04.188Z,5.90
2022-10-03T19:59:46.976Z,6.30
2022-10-03T20:02:15.256Z,5.97
2022-10-03T20:04:43.423Z,5.35
2022-10-03T20:07:18.910Z,5.10
2022-10-03T20:09:58.097Z,5.68
2022-10-03T20:12:29.968Z,5.40
2022-10-03T20:15:04.080Z,4.32
2022-10-03T20:17:33.585Z,4.70
2022-10-03T20:20:06.634Z,4.40
2022-10-03T20:22:37.737Z,4.05
2022-10-03T20:25:08.525Z,4.13
2022-10-03T20:27:40.724Z,3.30
2022-10-03T20:30:23.267Z,4.00
2022-10-03T20:32:52.785Z,4.57
2022-10-03T20:35:23.673Z,3.83
2022-10-03T20:37:57.815Z,3.70
2022-10-03T20:40:35.900Z,3.40
2022-10-03T20:43:20.939Z,3.25
2022-10-03T20:46:02.384Z,3.75
2022-10-03T20:48:36.310Z,3.72
2022-10-03T20:51:05.210Z,3.25
2022-10-03T20:53:34.563Z,3.40
2022-10-03T20:56:07.988Z,2.95
2022-10-03T20:58:42.511Z,3.63
2022-10-03T21:01:15.657Z,3.88
2022-10-03T21:04:05.092Z,4.13
2022-10-03T21:06:38.047Z,3.60
2022-10-03T21:09:08.440Z,3.42
2022-10-03T21:14:19.080Z,3.35
2022-10-03T21:16:50.224Z,3.55
2022-10-03T21:19:24.053Z,3.90
2022-10-03T21:21:56.219Z,3.60
2022-10-03T21:24:30.554Z,3.25
2022-10-03T21:27:01.318Z,3.22
2022-10-03T21:29:31.099Z,3.22
2022-10-03T21:32:15.343Z,3.42
2022-10-03T21:34:49.683Z,3.25
2022-10-03T21:37:26.286Z,2.90
2022-10-03T21:40:07.574Z,3.42
2022-10-03T21:42:44.252Z,3.28
2022-10-03T21:45:26.514Z,3.47
2022-10-03T21:47:59.922Z,3.05
2022-10-03T21:50:32.964Z,3.13
2022-10-03T21:53:17.471Z,3.05
2022-10-03T21:56:09.073Z,2.95
2022-10-03T21:59:07.340Z,2.75
2022-10-03T22:01:42.636Z,2.97
2022-10-03T22:04:20.511Z,2.80
2022-10-03T22:06:56.560Z,2.97
2022-10-03T22:09:24.475Z,3.08
2022-10-03T22:11:58.453Z,2.55
2022-10-03T22:14:39.027Z,2.50
2022-10-03T22:17:15.976Z,2.60
2022-10-03T22:19:48.487Z,2.95
2022-10-03T22:22:26.422Z,2.72
2022-10-03T22:25:14.945Z,2.20
2022-10-03T22:27:52.281Z,2.75
2022-10-03T22:30:22.473Z,2.85
2022-10-03T22:33:02.143Z,2.67
2022-10-03T22:35:50.423Z,2.92
2022-10-03T22:38:22.772Z,2.95
2022-10-03T22:40:51.729Z,2.60
2022-10-03T22:43:23.147Z,2.70
2022-10-03T22:45:54.228Z,2.47
2022-10-03T22:48:26.476Z,2.30
2022-10-03T22:50:57.140Z,2.25
2022-10-03T22:53:29.987Z,2.42
2022-10-03T22:56:00.132Z,2.30
2022-10-03T22:58:31.632Z,2.10
2022-10-03T23:01:01.171Z,2.35
2022-10-03T23:03:33.628Z,2.20
2022-10-03T23:06:31.995Z,1.92
2022-10-03T23:09:10.245Z,1.67
2022-10-03T23:11:41.560Z,2.28
2022-10-03T23:14:18.694Z,2.00
2022-10-03T23:16:55.087Z,1.77
2022-10-03T23:19:34.260Z,1.50
2022-10-03T23:22:02.539Z,1.65
2022-10-03T23:24:36.087Z,1.67
2022-10-03T23:27:47.044Z,1.58
2022-10-03T23:30:52.002Z,1.45
2022-10-03T23:33:51.949Z,1.63
2022-10-03T23:36:25.595Z,2.40
2022-10-03T23:38:59.667Z,2.20
2022-10-03T23:41:45.400Z,1.40
2022-10-03T23:44:31.083Z,1.98
2022-10-03T23:47:02.130Z,1.98
2022-10-03T23:49:31.620Z,1.42
2022-10-03T23:51:59.525Z,1.30
2022-10-03T23:54:28.565Z,1.38
2022-10-03T23:57:07.359Z,1.50
2022-10-03T23:59:37.496Z,1.60
